createdAt,value
2018-07-22T00:00:51.944Z,19.30
2018-07-22T00:03:20.474Z,19.20
2018-07-22T00:05:48.825Z,19.10
2018-07-22T00:08:17.215Z,19.00
2018-07-22T00:10:45.286Z,19.00
2018-07-22T00:13:13.375Z,19.10
2018-07-22T00:15:41.888Z,19.00
2018-07-22T00:18:09.956Z,19.00
2018-07-22T00:20:38.075Z,18.90
2018-07-22T00:23:06.178Z,18.90
2018-07-22T00:25:34.266Z,18.90
2018-07-22T00:28:02.334Z,18.90
2018-07-22T00:30:30.591Z,18.90
2018-07-22T00:32:58.650Z,18.90
2018-07-22T00:35:26.714Z,18.90
2018-07-22T00:37:55.098Z,18.90
2018-07-22T00:40:23.279Z,18.90
2018-07-22T00:42:51.352Z,18.90
2018-07-22T00:45:19.582Z,18.80
2018-07-22T00:47:47.840Z,18.80
2018-07-22T00:50:16.376Z,18.80
2018-07-22T00:52:44.682Z,18.70
2018-07-22T00:55:12.738Z,18.50
2018-07-22T00:57:40.794Z,18.40
2018-07-22T01:00:09.113Z,18.40
2018-07-22T01:02:37.126Z,18.30
2018-07-22T01:05:05.755Z,18.20
2018-07-22T01:07:34.106Z,18.20
2018-07-22T01:10:02.211Z,18.20
2018-07-22T01:12:30.667Z,18.20
2018-07-22T01:14:58.842Z,18.20
2018-07-22T01:17:27.021Z,18.10
2018-07-22T01:19:55.108Z,18.10
2018-07-22T01:22:23.457Z,18.00
2018-07-22T01:24:51.518Z,18.00
2018-07-22T01:27:19.578Z,17.90
2018-07-22T01:29:47.642Z,17.90
2018-07-22T01:32:15.709Z,17.90
2018-07-22T01:37:11.762Z,17.70
2018-07-22T01:39:39.822Z,17.70
2018-07-22T01:42:07.966Z,17.60
2018-07-22T01:44:36.135Z,17.60
2018-07-22T01:47:04.198Z,17.60
2018-07-22T01:49:32.286Z,17.60
2018-07-22T01:52:00.418Z,17.70
2018-07-22T01:54:28.629Z,17.70
2018-07-22T01:56:57.010Z,17.60
2018-07-22T01:59:25.075Z,17.60
2018-07-22T02:01:53.154Z,17.50
2018-07-22T02:04:21.210Z,17.50
2018-07-22T02:06:49.500Z,17.50
2018-07-22T02:09:17.562Z,17.40
2018-07-22T02:11:45.723Z,17.40
2018-07-22T02:14:13.786Z,17.40
2018-07-22T02:16:41.922Z,17.30
2018-07-22T02:21:37.938Z,17.30
2018-07-22T02:24:05.992Z,17.30
2018-07-22T02:26:34.078Z,17.30
2018-07-22T02:29:02.370Z,17.30
2018-07-22T02:31:30.444Z,17.20
2018-07-22T02:33:58.499Z,17.20
2018-07-22T02:36:26.734Z,17.20
2018-07-22T02:38:54.846Z,17.20
2018-07-22T02:41:22.925Z,17.20
2018-07-22T02:43:51.019Z,17.10
2018-07-22T02:46:19.125Z,17.10
2018-07-22T02:48:47.255Z,17.10
2018-07-22T02:51:15.805Z,17.10
2018-07-22T02:53:43.867Z,17.10
2018-07-22T02:56:11.946Z,17.10
2018-07-22T02:58:40.306Z,17.10
2018-07-22T03:01:08.389Z,17.00
2018-07-22T03:03:36.517Z,17.00
2018-07-22T03:06:04.721Z,17.00
2018-07-22T03:08:32.820Z,16.90
2018-07-22T03:11:00.916Z,17.00
2018-07-22T03:13:29.262Z,17.00
2018-07-22T03:15:57.331Z,17.00
2018-07-22T03:18:25.404Z,16.90
2018-07-22T03:20:53.486Z,16.90
2018-07-22T03:23:21.682Z,16.90
2018-07-22T03:25:49.759Z,16.80
2018-07-22T03:28:18.002Z,16.80
2018-07-22T03:30:46.062Z,16.80
2018-07-22T03:33:14.409Z,16.80
2018-07-22T03:35:42.477Z,16.80
2018-07-22T03:40:38.667Z,16.80
2018-07-22T03:43:07.038Z,16.80
2018-07-22T03:45:35.108Z,16.80
2018-07-22T03:48:03.215Z,16.80
2018-07-22T03:50:31.278Z,16.80
2018-07-22T03:52:59.354Z,16.90
2018-07-22T03:55:27.436Z,16.90
2018-07-22T03:57:55.514Z,16.90
2018-07-22T04:00:23.794Z,16.90
2018-07-22T04:02:51.862Z,16.90
2018-07-22T04:05:20.302Z,16.90
2018-07-22T04:07:48.975Z,17.00
2018-07-22T04:10:17.011Z,17.00
2018-07-22T04:12:45.338Z,17.00
2018-07-22T04:15:13.418Z,17.10
2018-07-22T04:17:41.759Z,17.10
2018-07-22T04:20:10.166Z,17.10
2018-07-22T04:22:38.248Z,17.20
2018-07-22T04:25:06.347Z,17.20
2018-07-22T04:27:34.960Z,17.20
2018-07-22T04:30:03.040Z,17.20
2018-07-22T04:32:31.124Z,17.30
2018-07-22T04:35:00.193Z,17.30
2018-07-22T04:37:28.281Z,17.30
2018-07-22T04:39:56.345Z,17.30
2018-07-22T04:42:24.454Z,17.30
2018-07-22T04:44:52.610Z,17.30
2018-07-22T04:47:20.697Z,17.40
2018-07-22T04:49:49.070Z,17.40
2018-07-22T04:52:17.142Z,17.50
2018-07-22T04:54:45.270Z,17.50
2018-07-22T04:57:13.359Z,17.60
2018-07-22T04:59:41.583Z,17.60
2018-07-22T05:02:09.695Z,17.60
2018-07-22T05:04:38.080Z,17.70
2018-07-22T05:07:06.154Z,17.70
2018-07-22T05:09:34.225Z,17.80
2018-07-22T05:12:02.519Z,17.80
2018-07-22T05:14:30.582Z,17.90
2018-07-22T05:16:58.830Z,17.90
2018-07-22T05:19:27.162Z,18.00
2018-07-22T05:21:55.239Z,18.00
2018-07-22T05:24:23.349Z,18.10
2018-07-22T05:26:51.430Z,18.20
2018-07-22T05:29:19.601Z,18.20
2018-07-22T05:31:47.919Z,18.30
2018-07-22T05:34:15.984Z,18.40
2018-07-22T05:36:44.098Z,18.50
2018-07-22T05:39:12.707Z,18.60
2018-07-22T05:41:41.754Z,18.70
2018-07-22T05:44:09.830Z,18.80
2018-07-22T05:46:37.907Z,18.80
2018-07-22T05:49:06.224Z,18.90
2018-07-22T05:51:34.466Z,19.00
2018-07-22T05:54:02.617Z,19.10
2018-07-22T05:56:30.710Z,19.10
2018-07-22T05:58:58.775Z,19.20
2018-07-22T06:01:26.854Z,19.30
2018-07-22T06:03:54.922Z,19.40
2018-07-22T06:06:22.982Z,19.50
2018-07-22T06:08:51.062Z,19.60
2018-07-22T06:11:19.536Z,19.70
2018-07-22T06:13:47.650Z,19.70
2018-07-22T06:16:15.722Z,19.80
2018-07-22T06:18:44.166Z,19.90
2018-07-22T06:21:12.262Z,20.00
2018-07-22T06:23:40.378Z,20.10
2018-07-22T06:26:08.492Z,20.20
2018-07-22T06:28:36.614Z,20.20
2018-07-22T06:31:04.738Z,20.30
2018-07-22T06:33:33.206Z,20.40
2018-07-22T06:36:01.360Z,20.50
2018-07-22T06:38:29.463Z,20.60
2018-07-22T06:40:57.791Z,20.70
2018-07-22T06:43:25.866Z,20.70
2018-07-22T06:45:53.978Z,20.80
2018-07-22T06:48:22.376Z,20.90
2018-07-22T06:50:50.463Z,21.00
2018-07-22T06:53:18.594Z,21.00
2018-07-22T06:55:46.682Z,21.20
2018-07-22T06:58:14.778Z,21.20
2018-07-22T07:00:42.850Z,21.40
2018-07-22T07:03:11.191Z,21.40
2018-07-22T07:05:39.274Z,21.60
2018-07-22T07:08:07.418Z,21.60
2018-07-22T07:10:35.814Z,21.70
2018-07-22T07:13:03.906Z,21.80
2018-07-22T07:15:31.990Z,21.90
2018-07-22T07:18:00.357Z,22.00
2018-07-22T07:20:28.491Z,22.00
2018-07-22T07:22:56.630Z,22.10
2018-07-22T07:25:25.078Z,22.20
2018-07-22T07:27:53.134Z,22.30
2018-07-22T07:30:21.194Z,22.40
2018-07-22T07:32:49.616Z,22.50
2018-07-22T07:35:17.775Z,22.50
2018-07-22T07:37:45.986Z,22.60
2018-07-22T07:40:14.462Z,22.70
2018-07-22T07:42:42.519Z,22.90
2018-07-22T07:45:10.591Z,23.00
2018-07-22T07:47:38.962Z,23.00
2018-07-22T07:50:07.109Z,23.10
2018-07-22T07:52:35.186Z,23.20
2018-07-22T07:55:04.019Z,23.20
2018-07-22T07:57:32.114Z,23.30
2018-07-22T08:00:00.194Z,23.40
2018-07-22T08:02:28.527Z,23.50
2018-07-22T08:07:24.524Z,23.80
2018-07-22T08:09:52.589Z,24.00
2018-07-22T08:12:20.677Z,24.10
2018-07-22T08:14:48.758Z,24.10
2018-07-22T08:17:17.898Z,24.20
2018-07-22T08:19:46.027Z,24.30
2018-07-22T08:22:14.113Z,24.50
2018-07-22T08:24:42.621Z,24.60
2018-07-22T08:27:10.691Z,24.70
2018-07-22T08:29:38.770Z,24.70
2018-07-22T08:32:07.512Z,24.70
2018-07-22T08:34:35.582Z,24.70
2018-07-22T08:37:03.655Z,24.70
2018-07-22T08:39:32.534Z,24.80
2018-07-22T08:42:01.024Z,24.90
2018-07-22T08:44:29.100Z,25.00
2018-07-22T08:46:57.168Z,25.00
2018-07-22T08:49:25.248Z,25.10
2018-07-22T08:51:54.218Z,25.20
2018-07-22T08:54:22.641Z,25.20
2018-07-22T08:56:50.835Z,25.30
2018-07-22T08:59:19.050Z,25.40
2018-07-22T09:01:47.411Z,25.40
2018-07-22T09:04:16.830Z,25.40
2018-07-22T09:06:47.209Z,25.60
2018-07-22T09:09:15.283Z,25.60
2018-07-22T09:11:43.541Z,25.90
2018-07-22T09:14:12.089Z,26.10
2018-07-22T09:16:41.990Z,26.30
2018-07-22T09:19:11.137Z,26.40
2018-07-22T09:21:39.673Z,26.40
2018-07-22T09:24:09.242Z,26.30
2018-07-22T09:26:37.297Z,26.30
2018-07-22T09:29:05.638Z,26.20
2018-07-22T09:31:33.714Z,26.20
2018-07-22T09:34:01.783Z,26.00
2018-07-22T09:36:30.195Z,26.00
2018-07-22T09:38:58.287Z,25.90
2018-07-22T09:41:26.418Z,26.00
2018-07-22T09:43:54.791Z,26.00
2018-07-22T09:46:22.831Z,26.20
2018-07-22T09:48:50.907Z,26.20
2018-07-22T09:51:19.003Z,26.40
2018-07-22T09:53:47.091Z,26.50
2018-07-22T09:56:15.339Z,26.60
2018-07-22T09:58:43.825Z,26.70
2018-07-22T10:01:11.917Z,26.70
2018-07-22T10:03:40.361Z,26.80
2018-07-22T10:06:08.925Z,26.80
2018-07-22T10:08:37.055Z,26.90
2018-07-22T10:11:05.520Z,27.00
2018-07-22T10:13:34.982Z,27.00
2018-07-22T10:18:30.961Z,27.20
2018-07-22T10:21:01.044Z,27.10
2018-07-22T10:23:29.198Z,27.30
2018-07-22T10:25:57.254Z,27.50
2018-07-22T10:28:25.374Z,27.80
2018-07-22T10:30:53.482Z,27.90
2018-07-22T10:33:21.874Z,28.00
2018-07-22T10:35:50.250Z,28.20
2018-07-22T10:38:21.125Z,28.30
2018-07-22T10:40:49.392Z,28.50
2018-07-22T10:43:17.744Z,28.70
2018-07-22T10:45:45.846Z,29.00
2018-07-22T10:48:13.941Z,29.10
2018-07-22T10:50:42.330Z,29.00
2018-07-22T10:53:10.450Z,28.90
2018-07-22T10:58:06.958Z,28.70
2018-07-22T11:00:35.555Z,28.70
2018-07-22T11:03:05.262Z,28.90
2018-07-22T11:05:33.582Z,28.90
2018-07-22T11:08:01.704Z,29.00
2018-07-22T11:10:29.908Z,29.00
2018-07-22T11:12:57.925Z,29.00
2018-07-22T11:15:26.008Z,29.10
2018-07-22T11:17:54.067Z,29.20
2018-07-22T11:20:22.397Z,29.40
2018-07-22T11:22:50.478Z,29.60
2018-07-22T11:25:18.662Z,29.60
2018-07-22T11:27:47.138Z,29.60
2018-07-22T11:30:15.210Z,29.70
2018-07-22T11:32:43.298Z,29.80
2018-07-22T11:35:11.354Z,29.90
2018-07-22T11:37:39.434Z,29.80
2018-07-22T11:40:07.522Z,29.80
2018-07-22T11:42:35.938Z,29.90
2018-07-22T11:45:04.432Z,30.10
2018-07-22T11:47:32.517Z,30.20
2018-07-22T11:50:00.854Z,30.10
2018-07-22T11:52:28.945Z,30.00
2018-07-22T11:54:57.032Z,30.20
2018-07-22T11:57:25.421Z,30.50
2018-07-22T11:59:53.523Z,30.70
2018-07-22T12:02:21.635Z,30.60
2018-07-22T12:04:50.027Z,30.40
2018-07-22T12:07:18.150Z,30.20
2018-07-22T12:12:14.494Z,29.80
2018-07-22T12:14:42.567Z,29.70
2018-07-22T12:19:38.824Z,29.20
2018-07-22T12:22:06.917Z,29.00
2018-07-22T12:24:35.013Z,28.90
2018-07-22T12:27:03.347Z,28.70
2018-07-22T12:29:33.095Z,28.70
2018-07-22T12:32:01.188Z,28.80
2018-07-22T12:34:30.367Z,28.90
2018-07-22T12:36:58.454Z,28.80
2018-07-22T12:39:26.550Z,28.80
2018-07-22T12:41:54.906Z,28.80
2018-07-22T12:44:23.045Z,28.80
2018-07-22T12:46:51.139Z,28.70
2018-07-22T12:49:19.509Z,28.90
2018-07-22T12:51:47.704Z,29.10
2018-07-22T12:54:16.147Z,29.20
2018-07-22T12:56:44.624Z,29.30
2018-07-22T12:59:12.700Z,29.30
2018-07-22T13:01:40.791Z,29.60
2018-07-22T13:04:09.166Z,29.70
2018-07-22T13:06:37.251Z,29.80
2018-07-22T13:09:07.415Z,30.00
2018-07-22T13:11:35.930Z,30.10
2018-07-22T13:14:04.214Z,29.90
2018-07-22T13:16:32.351Z,30.00
2018-07-22T13:19:01.064Z,29.90
2018-07-22T13:21:29.213Z,29.70
2018-07-22T13:23:58.243Z,29.50
2018-07-22T13:26:26.649Z,29.40
2018-07-22T13:28:54.729Z,29.30
2018-07-22T13:31:22.880Z,29.30
2018-07-22T13:33:51.618Z,29.20
2018-07-22T13:36:19.834Z,29.20
2018-07-22T13:38:47.994Z,29.20
2018-07-22T13:41:16.381Z,29.20
2018-07-22T13:43:44.566Z,29.30
2018-07-22T13:46:12.622Z,29.30
2018-07-22T13:48:41.009Z,29.30
2018-07-22T13:51:09.078Z,29.30
2018-07-22T13:53:37.150Z,29.30
2018-07-22T13:56:05.752Z,29.30
2018-07-22T13:58:33.805Z,29.40
2018-07-22T14:01:01.887Z,29.40
2018-07-22T14:03:30.267Z,29.70
2018-07-22T14:05:58.362Z,29.90
2018-07-22T14:08:26.478Z,30.00
2018-07-22T14:10:54.807Z,29.90
2018-07-22T14:13:22.967Z,29.70
2018-07-22T14:15:51.033Z,29.40
2018-07-22T14:18:19.415Z,29.20
2018-07-22T14:20:47.482Z,29.10
2018-07-22T14:23:15.558Z,29.40
2018-07-22T14:25:43.932Z,29.70
2018-07-22T14:28:12.091Z,29.60
2018-07-22T14:30:40.095Z,29.70
2018-07-22T14:33:08.643Z,29.70
2018-07-22T14:35:36.716Z,29.90
2018-07-22T14:38:04.854Z,30.40
2018-07-22T14:40:32.958Z,30.70
2018-07-22T14:43:01.015Z,30.80
2018-07-22T14:45:29.094Z,30.90
2018-07-22T14:47:57.390Z,31.20
2018-07-22T14:50:25.471Z,31.30
2018-07-22T14:52:53.544Z,31.40
2018-07-22T14:55:21.856Z,31.60
2018-07-22T14:57:49.929Z,31.60
2018-07-22T15:00:18.206Z,31.80
2018-07-22T15:02:46.507Z,31.90
2018-07-22T15:05:14.685Z,32.00
2018-07-22T15:07:42.762Z,32.10
2018-07-22T15:10:11.357Z,32.20
2018-07-22T15:12:39.430Z,32.30
2018-07-22T15:15:07.514Z,32.50
2018-07-22T15:17:35.872Z,32.50
2018-07-22T15:20:04.356Z,32.70
2018-07-22T15:22:32.474Z,32.90
2018-07-22T15:25:00.898Z,33.20
2018-07-22T15:27:29.256Z,33.20
2018-07-22T15:29:57.449Z,33.30
2018-07-22T15:32:25.752Z,33.40
2018-07-22T15:34:53.863Z,33.60
2018-07-22T15:37:21.915Z,33.90
2018-07-22T15:39:51.349Z,34.00
2018-07-22T15:42:19.490Z,34.00
2018-07-22T15:44:47.542Z,34.20
2018-07-22T15:47:16.025Z,34.40
2018-07-22T15:49:44.090Z,34.60
2018-07-22T15:52:12.248Z,34.50
2018-07-22T15:54:40.586Z,34.80
2018-07-22T15:57:08.691Z,35.00
2018-07-22T15:59:36.762Z,35.10
2018-07-22T16:02:06.131Z,35.30
2018-07-22T16:04:34.233Z,35.30
2018-07-22T16:09:30.494Z,35.60
2018-07-22T16:11:58.561Z,35.90
2018-07-22T16:14:26.643Z,36.10
2018-07-22T16:16:55.039Z,36.50
2018-07-22T16:19:23.122Z,36.50
2018-07-22T16:21:51.198Z,36.40
2018-07-22T16:24:19.620Z,36.40
2018-07-22T16:26:47.715Z,36.60
2018-07-22T16:29:15.790Z,36.70
2018-07-22T16:31:44.249Z,37.00
2018-07-22T16:34:12.328Z,37.00
2018-07-22T16:36:40.504Z,36.80
2018-07-22T16:39:09.670Z,36.60
2018-07-22T16:41:38.090Z,36.90
2018-07-22T16:44:06.802Z,37.00
2018-07-22T16:46:35.227Z,37.00
2018-07-22T16:49:03.423Z,37.30
2018-07-22T16:51:31.593Z,37.20
2018-07-22T16:54:00.000Z,37.30
2018-07-22T16:56:28.075Z,37.10
2018-07-22T16:58:56.191Z,36.30
2018-07-22T17:01:24.610Z,35.10
2018-07-22T17:03:52.682Z,33.80
2018-07-22T17:06:20.798Z,32.70
2018-07-22T17:08:49.116Z,31.90
2018-07-22T17:11:17.246Z,31.20
2018-07-22T17:16:13.202Z,30.30
2018-07-22T17:18:41.261Z,30.00
2018-07-22T17:21:09.335Z,29.50
2018-07-22T17:23:37.441Z,29.10
2018-07-22T17:26:05.537Z,28.80
2018-07-22T17:28:33.612Z,28.60
2018-07-22T17:31:01.969Z,28.50
2018-07-22T17:33:30.035Z,28.40
2018-07-22T17:35:58.097Z,28.30
2018-07-22T17:38:26.488Z,28.10
2018-07-22T17:40:54.545Z,28.00
2018-07-22T17:43:22.619Z,27.90
2018-07-22T17:45:50.683Z,27.80
2018-07-22T17:48:18.746Z,27.70
2018-07-22T17:50:46.837Z,27.60
2018-07-22T17:53:15.230Z,27.60
2018-07-22T17:55:43.306Z,27.50
2018-07-22T17:58:11.380Z,27.30
2018-07-22T18:00:39.475Z,27.20
2018-07-22T18:03:22.130Z,27.00
2018-07-22T18:05:50.854Z,26.90
2018-07-22T18:08:19.244Z,26.80
2018-07-22T18:10:47.628Z,26.70
2018-07-22T18:13:16.331Z,26.70
2018-07-22T18:15:44.403Z,26.70
2018-07-22T18:18:13.277Z,26.60
2018-07-22T18:20:41.891Z,26.60
2018-07-22T18:23:10.235Z,26.60
2018-07-22T18:25:38.995Z,26.60
2018-07-22T18:28:07.061Z,26.70
2018-07-22T18:30:35.136Z,26.70
2018-07-22T18:33:03.288Z,26.60
2018-07-22T18:35:31.634Z,26.40
2018-07-22T18:37:59.757Z,26.20
2018-07-22T18:40:27.827Z,26.10
2018-07-22T18:42:56.999Z,26.10
2018-07-22T18:45:25.416Z,25.90
2018-07-22T18:50:22.154Z,25.90
2018-07-22T18:52:50.270Z,25.80
2018-07-22T18:55:18.652Z,25.80
2018-07-22T18:57:47.000Z,25.60
2018-07-22T19:00:15.287Z,25.60
2018-07-22T19:02:44.133Z,25.60
2018-07-22T19:05:12.595Z,25.50
2018-07-22T19:07:40.803Z,25.40
2018-07-22T19:10:08.874Z,25.40
2018-07-22T19:12:37.421Z,25.30
2018-07-22T19:15:05.534Z,25.30
2018-07-22T19:17:33.616Z,25.30
2018-07-22T19:20:02.017Z,25.10
2018-07-22T19:22:30.092Z,25.10
2018-07-22T19:24:58.161Z,25.00
2018-07-22T19:27:26.519Z,24.90
2018-07-22T19:29:54.582Z,24.90
2018-07-22T19:32:22.655Z,24.90
2018-07-22T19:34:50.983Z,24.70
2018-07-22T19:37:19.131Z,24.50
2018-07-22T19:39:47.216Z,24.40
2018-07-22T19:42:15.587Z,24.30
2018-07-22T19:44:46.137Z,24.20
2018-07-22T19:47:15.631Z,24.30
2018-07-22T19:49:43.710Z,24.30
2018-07-22T19:52:11.766Z,24.20
2018-07-22T19:54:39.881Z,24.10
2018-07-22T19:57:07.930Z,24.10
2018-07-22T19:59:36.086Z,24.00
2018-07-22T20:02:04.517Z,24.00
2018-07-22T20:04:32.591Z,23.80
2018-07-22T20:07:00.660Z,23.80
2018-07-22T20:09:29.059Z,23.70
2018-07-22T20:11:57.114Z,23.70
2018-07-22T20:14:25.189Z,23.70
2018-07-22T20:16:53.561Z,23.70
2018-07-22T20:19:21.720Z,23.70
2018-07-22T20:21:49.770Z,23.60
2018-07-22T20:24:18.280Z,23.50
2018-07-22T20:26:46.273Z,23.50
2018-07-22T20:31:42.609Z,23.50
2018-07-22T20:34:10.718Z,23.50
2018-07-22T20:36:38.790Z,23.50
2018-07-22T20:39:09.260Z,23.40
2018-07-22T20:41:37.572Z,23.30
2018-07-22T20:44:06.154Z,23.30
2018-07-22T20:46:34.230Z,23.20
2018-07-22T20:49:02.305Z,23.10
2018-07-22T20:51:30.384Z,23.00
2018-07-22T20:53:58.447Z,22.90
2018-07-22T20:56:26.734Z,22.80
2018-07-22T20:58:54.815Z,22.80
2018-07-22T21:03:50.815Z,22.70
2018-07-22T21:06:18.931Z,22.60
2018-07-22T21:08:47.363Z,22.50
2018-07-22T21:11:15.766Z,22.40
2018-07-22T21:13:43.827Z,22.40
2018-07-22T21:16:12.206Z,22.30
2018-07-22T21:18:40.259Z,22.20
2018-07-22T21:21:08.361Z,22.10
2018-07-22T21:23:36.392Z,22.10
2018-07-22T21:26:04.454Z,22.10
2018-07-22T21:28:32.540Z,22.00
2018-07-22T21:31:00.934Z,21.90
2018-07-22T21:33:29.309Z,21.70
2018-07-22T21:35:57.396Z,21.60
2018-07-22T21:38:25.765Z,21.60
2018-07-22T21:40:53.851Z,21.60
2018-07-22T21:43:21.930Z,21.60
2018-07-22T21:45:50.174Z,21.60
2018-07-22T21:48:18.267Z,21.60
2018-07-22T21:50:46.449Z,21.50
2018-07-22T21:53:14.914Z,21.50
2018-07-22T21:55:43.166Z,21.40
2018-07-22T21:58:11.400Z,21.30
2018-07-22T22:00:44.309Z,21.30
2018-07-22T22:05:40.240Z,21.10
2018-07-22T22:08:08.666Z,21.10
2018-07-22T22:10:37.132Z,21.00
2018-07-22T22:13:05.470Z,20.90
2018-07-22T22:15:33.587Z,20.80
2018-07-22T22:18:02.810Z,20.80
2018-07-22T22:20:31.319Z,20.80
2018-07-22T22:22:59.968Z,20.80
2018-07-22T22:25:28.044Z,20.80
2018-07-22T22:27:56.175Z,20.60
2018-07-22T22:30:24.245Z,20.60
2018-07-22T22:32:52.311Z,20.60
2018-07-22T22:35:20.484Z,20.60
2018-07-22T22:37:48.908Z,20.50
2018-07-22T22:40:17.149Z,20.50
2018-07-22T22:42:46.213Z,20.50
2018-07-22T22:45:15.281Z,20.40
2018-07-22T22:47:43.326Z,20.40
2018-07-22T22:50:11.398Z,20.40
2018-07-22T22:52:39.486Z,20.30
2018-07-22T22:55:07.582Z,20.20
2018-07-22T22:57:35.650Z,20.20
2018-07-22T23:00:04.240Z,20.10
2018-07-22T23:02:34.302Z,20.00
2018-07-22T23:05:02.905Z,20.00
2018-07-22T23:07:30.990Z,20.00
2018-07-22T23:09:59.066Z,19.90
2018-07-22T23:12:27.146Z,19.90
2018-07-22T23:14:55.218Z,19.90
2018-07-22T23:17:23.282Z,19.80
2018-07-22T23:19:51.362Z,19.70
2018-07-22T23:22:19.482Z,19.70
2018-07-22T23:24:47.562Z,19.60
2018-07-22T23:27:15.644Z,19.50
2018-07-22T23:29:43.986Z,19.50
2018-07-22T23:32:12.074Z,19.50
2018-07-22T23:34:40.147Z,19.50
2018-07-22T23:37:08.270Z,19.50
2018-07-22T23:39:36.386Z,19.40
2018-07-22T23:42:04.487Z,19.50
2018-07-22T23:47:00.599Z,19.20
2018-07-22T23:49:28.670Z,19.20
2018-07-22T23:51:57.138Z,19.10
2018-07-22T23:54:25.233Z,18.90
2018-07-22T23:56:53.294Z,18.90
2018-07-22T23:59:21.370Z,18.80
